Time;durP1;ratioP1;P1;durP2;ratioP2;P2;SDS_P1;SDS_P2;PMS_P1;PMS_P2;Temp;Humidity;BMP_temperature;BMP_pressure;BME280_temperature;BME280_humidity;BME280_pressure;Samples;Min_cycle;Max_cycle;Signal;HPM_P1;HPM_P2
2021/06/28 00:00:14;;;;;;;0.55;0.55;;;19.00;79.50;;;;;;5001234;28;20097;-85
2021/06/28 00:02:40;;;;;;;0.68;0.68;;;19.00;79.50;;;;;;5000656;28;20132;-84
2021/06/28 00:05:09;;;;;;;0.70;0.70;;;18.80;79.40;;;;;;4984962;28;20191;-84
2021/06/28 00:07:39;;;;;;;0.88;0.77;;;18.90;79.60;;;;;;5001508;28;20056;-85
2021/06/28 00:10:06;;;;;;;;;;;18.80;79.50;;;;;;5031932;28;20142;-85
2021/06/28 00:12:32;;;;;;;0.70;0.70;;;18.80;79.40;;;;;;5015332;28;19913;-82
2021/06/28 00:14:58;;;;;;;0.93;0.68;;;18.80;79.50;;;;;;5015285;28;20127;-85
2021/06/28 00:17:24;;;;;;;0.70;0.60;;;18.80;79.60;;;;;;5050422;28;20481;-85
2021/06/28 00:19:50;;;;;;;0.70;0.70;;;18.70;79.60;;;;;;5021267;28;20037;-86
2021/06/28 00:22:16;;;;;;;0.60;0.60;;;18.80;79.70;;;;;;5038997;28;20122;-87
2021/06/28 00:24:42;;;;;;;0.70;0.70;;;18.80;79.80;;;;;;5022019;28;20498;-83
2021/06/28 00:27:08;;;;;;;0.60;0.60;;;18.70;79.70;;;;;;5055715;28;20047;-83
2021/06/28 00:29:36;;;;;;;0.70;0.60;;;18.70;79.80;;;;;;5058837;28;20048;-83
2021/06/28 00:32:02;;;;;;;1.25;0.75;;;18.60;79.80;;;;;;5041072;28;20044;-83
2021/06/28 00:34:29;;;;;;;0.60;0.60;;;18.60;79.90;;;;;;5039312;28;20054;-82
2021/06/28 00:36:56;;;;;;;0.82;0.70;;;18.70;80.00;;;;;;5038882;28;20068;-82
2021/06/28 00:39:23;;;;;;;0.80;0.80;;;18.60;80.00;;;;;;5039708;28;20032;-83
2021/06/28 00:41:49;;;;;;;0.60;0.60;;;18.60;80.00;;;;;;5059118;28;20048;-84
2021/06/28 00:44:15;;;;;;;0.60;0.60;;;18.60;80.00;;;;;;5056162;28;20040;-84
2021/06/28 00:46:42;;;;;;;0.82;0.82;;;18.50;80.00;;;;;;5073315;28;20041;-84
2021/06/28 00:49:11;;;;;;;0.80;0.80;;;18.60;80.00;;;;;;5039006;28;20041;-83
2021/06/28 00:51:37;;;;;;;0.70;0.68;;;18.50;80.00;;;;;;4991601;28;20039;-83
2021/06/28 00:54:03;;;;;;;0.47;0.47;;;18.60;80.10;;;;;;4960356;28;20151;-84
2021/06/28 00:56:29;;;;;;;0.70;0.70;;;18.50;80.10;;;;;;4977453;28;20125;-84
2021/06/28 00:58:56;;;;;;;0.70;0.70;;;18.70;80.30;;;;;;4966065;28;20047;-83
2021/06/28 01:01:21;;;;;;;0.60;0.60;;;18.50;80.30;;;;;;4960174;28;20085;-82
2021/06/28 01:03:47;;;;;;;0.80;0.80;;;18.50;80.30;;;;;;4958978;28;20074;-82
2021/06/28 01:06:14;;;;;;;1.00;0.90;;;18.50;80.40;;;;;;4991625;28;21243;-83
2021/06/28 01:08:40;;;;;;;1.13;0.88;;;18.40;80.40;;;;;;4974736;28;20084;-82
2021/06/28 01:11:07;;;;;;;0.90;0.80;;;18.30;80.40;;;;;;4974813;28;20498;-82
2021/06/28 01:13:34;;;;;;;0.60;0.60;;;18.40;81.20;;;;;;4991769;28;20047;-83
2021/06/28 01:16:02;;;;;;;0.75;0.75;;;18.40;80.60;;;;;;5000119;28;20050;-82
2021/06/28 01:18:28;;;;;;;0.80;0.80;;;18.30;80.60;;;;;;5010113;28;20042;-82
2021/06/28 01:20:54;;;;;;;0.80;0.70;;;18.30;80.50;;;;;;4994442;28;20038;-82
2021/06/28 01:23:23;;;;;;;0.98;0.80;;;18.30;80.60;;;;;;5028240;28;20047;-81
2021/06/28 01:25:54;;;;;;;0.70;0.70;;;18.30;80.70;;;;;;5070966;28;20494;-82
2021/06/28 01:28:20;;;;;;;0.70;0.70;;;18.30;80.70;;;;;;5054885;28;20048;-82
2021/06/28 01:30:47;;;;;;;0.90;0.80;;;18.20;80.70;;;;;;5037035;28;20044;-82
2021/06/28 01:33:13;;;;;;;0.70;0.70;;;18.20;81.40;;;;;;5037797;28;20481;-82
2021/06/28 01:35:40;;;;;;;0.57;0.57;;;18.20;80.80;;;;;;5054441;28;20041;-82
2021/06/28 01:38:06;;;;;;;0.98;0.75;;;18.20;80.70;;;;;;5054297;28;20098;-82
2021/06/28 01:40:32;;;;;;;1.13;0.73;;;18.20;80.70;;;;;;5054152;28;20098;-83
2021/06/28 01:42:57;;;;;;;0.60;0.60;;;18.30;81.00;;;;;;5036483;28;20041;-82
2021/06/28 01:45:24;;;;;;;0.77;0.75;;;18.20;80.70;;;;;;5054125;28;20044;-82
2021/06/28 01:47:51;;;;;;;1.02;0.80;;;18.20;80.80;;;;;;5071991;28;20478;-82
2021/06/28 01:50:18;;;;;;;0.98;0.82;;;18.20;80.80;;;;;;5038246;28;20135;-83
2021/06/28 01:52:45;;;;;;;0.93;0.82;;;18.20;80.80;;;;;;5054331;28;20055;-82
2021/06/28 01:55:15;;;;;;;0.80;0.80;;;18.20;80.80;;;;;;5054170;28;20406;-82
2021/06/28 01:57:43;;;;;;;0.80;0.80;;;18.20;80.80;;;;;;5054639;28;20355;-82
2021/06/28 02:00:09;;;;;;;0.80;0.80;;;18.20;80.80;;;;;;5070652;28;20438;-82
2021/06/28 02:02:35;;;;;;;0.90;0.80;;;18.20;80.80;;;;;;5037301;28;20045;-82
2021/06/28 02:05:00;;;;;;;0.90;0.80;;;18.20;80.80;;;;;;5054055;28;20048;-82
2021/06/28 02:07:26;;;;;;;1.15;0.90;;;18.20;80.90;;;;;;5035377;28;20398;-82
2021/06/28 02:09:52;;;;;;;1.13;0.93;;;18.20;80.90;;;;;;5020668;28;20383;-82
2021/06/28 02:12:18;;;;;;;0.80;0.80;;;18.10;80.90;;;;;;5071695;28;20129;-81
2021/06/28 02:14:44;;;;;;;0.90;0.90;;;18.10;81.00;;;;;;5052600;28;20041;-82
2021/06/28 02:17:09;;;;;;;1.02;0.90;;;18.10;81.00;;;;;;5053925;28;20090;-82
2021/06/28 02:19:35;;;;;;;1.08;0.98;;;18.10;81.00;;;;;;5053167;28;20045;-82
2021/06/28 02:22:01;;;;;;;0.65;0.60;;;18.10;81.00;;;;;;5052399;28;20041;-82
2021/06/28 02:24:27;;;;;;;1.42;0.77;;;18.10;81.00;;;;;;5037030;28;20437;-82
2021/06/28 02:26:53;;;;;;;0.82;0.75;;;18.10;81.00;;;;;;5036929;28;20040;-82
2021/06/28 02:29:18;;;;;;;1.13;0.80;;;18.10;81.00;;;;;;5054537;28;20491;-82
2021/06/28 02:31:44;;;;;;;0.93;0.88;;;18.10;81.00;;;;;;5022304;28;20402;-82
2021/06/28 02:34:10;;;;;;;1.05;0.95;;;18.10;81.00;;;;;;5056703;28;20072;-82
2021/06/28 02:36:36;;;;;;;0.77;0.75;;;18.20;81.10;;;;;;5075425;28;20040;-81
2021/06/28 02:39:05;;;;;;;0.82;0.82;;;18.10;81.00;;;;;;5056884;28;20055;-83
2021/06/28 02:41:31;;;;;;;1.10;1.00;;;18.10;81.00;;;;;;5074861;28;20047;-83
2021/06/28 02:43:56;;;;;;;1.10;1.00;;;18.10;81.00;;;;;;5056745;28;20119;-82
2021/06/28 02:46:23;;;;;;;0.85;0.80;;;18.10;81.00;;;;;;5074667;28;20086;-82
2021/06/28 02:48:49;;;;;;;0.90;0.90;;;18.10;81.00;;;;;;5073223;28;20132;-82
2021/06/28 02:51:16;;;;;;;0.95;0.88;;;18.10;81.00;;;;;;5054898;28;20144;-82
2021/06/28 02:53:42;;;;;;;1.25;1.00;;;18.10;81.10;;;;;;5073242;28;20048;-83
2021/06/28 02:56:16;;;;;;;0.90;0.77;;;18.00;81.00;;;;;;5039858;28;20049;-83
2021/06/28 02:58:50;;;;;;;0.98;0.80;;;17.90;81.00;;;;;;5057713;28;20143;-82
2021/06/28 03:01:17;;;;;;;0.63;0.63;;;18.00;81.20;;;;;;5038065;28;20037;-82
2021/06/28 03:03:43;;;;;;;0.82;0.80;;;18.00;81.20;;;;;;5056400;28;20064;-82
2021/06/28 03:06:09;;;;;;;0.68;0.68;;;17.90;81.20;;;;;;5039112;28;20088;-82
2021/06/28 03:08:35;;;;;;;0.75;0.75;;;17.90;81.30;;;;;;5056478;28;20037;-82
2021/06/28 03:11:02;;;;;;;0.65;0.65;;;17.90;81.40;;;;;;5039768;28;20098;-82
2021/06/28 03:13:29;;;;;;;0.60;0.60;;;17.90;81.40;;;;;;5057056;28;20040;-83
2021/06/28 03:15:55;;;;;;;0.80;0.80;;;17.90;81.50;;;;;;5039557;28;20040;-83
2021/06/28 03:18:21;;;;;;;1.00;0.90;;;17.80;81.50;;;;;;5039709;28;20041;-82
2021/06/28 03:20:46;;;;;;;0.63;0.63;;;17.90;81.50;;;;;;5039718;28;20048;-82
2021/06/28 03:23:12;;;;;;;0.77;0.70;;;17.90;81.60;;;;;;5056377;28;20135;-82
2021/06/28 03:25:38;;;;;;;0.80;0.80;;;17.90;81.50;;;;;;5074261;28;20387;-82
2021/06/28 03:28:04;;;;;;;0.57;0.57;;;17.90;81.60;;;;;;5074674;28;20045;-82
2021/06/28 03:30:30;;;;;;;0.70;0.70;;;17.80;81.60;;;;;;5056176;28;20119;-82
2021/06/28 03:32:56;;;;;;;0.82;0.82;;;17.80;81.60;;;;;;5022339;28;20199;-82
2021/06/28 03:35:22;;;;;;;1.35;0.85;;;17.80;81.60;;;;;;5056443;28;20040;-81
2021/06/28 03:37:47;;;;;;;1.15;1.00;;;17.80;81.70;;;;;;5056108;28;20042;-82
2021/06/28 03:40:13;;;;;;;1.17;0.98;;;17.80;81.70;;;;;;5055298;28;20040;-82
2021/06/28 03:42:40;;;;;;;1.27;1.10;;;17.80;81.70;;;;;;5072772;28;20041;-82
2021/06/28 03:45:08;;;;;;;1.05;0.95;;;17.70;81.70;;;;;;5022914;28;20064;-82
2021/06/28 03:47:34;;;;;;;0.90;0.80;;;17.80;81.80;;;;;;5073890;28;20091;-82
2021/06/28 03:50:00;;;;;;;0.65;0.65;;;17.70;81.80;;;;;;5055894;28;20544;-82
2021/06/28 03:52:26;;;;;;;1.27;0.95;;;17.80;81.90;;;;;;5022979;28;20502;-82
2021/06/28 03:54:52;;;;;;;1.10;1.00;;;17.80;81.80;;;;;;5054101;28;20076;-82
2021/06/28 03:57:17;;;;;;;0.70;0.70;;;17.70;81.80;;;;;;5039363;28;20044;-81
2021/06/28 03:59:43;;;;;;;0.80;0.80;;;17.80;81.90;;;;;;5022789;28;20029;-82
2021/06/28 04:02:09;;;;;;;0.60;0.60;;;17.70;81.80;;;;;;5039342;28;20390;-81
2021/06/28 04:04:35;;;;;;;0.60;0.60;;;17.70;81.80;;;;;;5056427;28;20098;-82
2021/06/28 04:07:00;;;;;;;0.73;0.65;;;17.80;81.90;;;;;;5073742;28;20044;-81
2021/06/28 04:09:26;;;;;;;0.63;0.63;;;17.80;81.80;;;;;;5022732;28;20041;-82
2021/06/28 04:11:52;;;;;;;0.60;0.55;;;17.70;81.80;;;;;;5053627;28;20543;-82
2021/06/28 04:14:17;;;;;;;0.90;0.90;;;17.70;81.80;;;;;;5055970;28;20091;-82
2021/06/28 04:16:43;;;;;;;1.05;0.90;;;17.70;81.90;;;;;;5054504;28;20180;-82
2021/06/28 04:19:09;;;;;;;0.60;0.60;;;17.70;81.90;;;;;;5055506;28;20074;-81
2021/06/28 04:21:35;;;;;;;1.35;1.10;;;17.70;81.90;;;;;;5055158;28;20494;-82
2021/06/28 04:24:03;;;;;;;0.90;0.90;;;17.70;81.90;;;;;;5055478;28;20068;-82
2021/06/28 04:26:30;;;;;;;0.70;0.70;;;17.70;82.00;;;;;;5073608;28;20047;-82
2021/06/28 04:28:56;;;;;;;0.57;0.57;;;17.70;82.00;;;;;;5072200;28;20102;-81
2021/06/28 04:31:22;;;;;;;0.60;0.60;;;17.70;81.90;;;;;;5073279;28;20032;-81
2021/06/28 04:33:48;;;;;;;1.13;0.80;;;17.80;81.90;;;;;;5022561;28;20064;-82
2021/06/28 04:36:13;;;;;;;0.50;0.50;;;17.80;81.90;;;;;;5073440;28;20131;-82
2021/06/28 04:38:39;;;;;;;1.30;0.88;;;17.80;81.80;;;;;;5073275;28;20123;-82
2021/06/28 04:41:05;;;;;;;0.80;0.80;;;17.80;81.70;;;;;;5055735;28;20048;-83
2021/06/28 04:43:31;;;;;;;1.50;0.98;;;17.90;81.70;;;;;;5038763;28;20060;-82
2021/06/28 04:45:57;;;;;;;0.65;0.65;;;18.00;81.70;;;;;;5055289;28;20508;-82
2021/06/28 04:48:22;;;;;;;0.73;0.73;;;18.00;81.60;;;;;;5038463;28;20437;-82
2021/06/28 04:50:48;;;;;;;1.10;1.00;;;18.10;81.50;;;;;;5055090;28;20147;-82
2021/06/28 04:53:14;;;;;;;1.38;0.90;;;18.10;81.50;;;;;;5021661;28;20043;-83
2021/06/28 04:55:40;;;;;;;1.20;0.90;;;18.10;81.40;;;;;;5021814;28;20486;-82
2021/06/28 04:58:06;;;;;;;1.45;1.10;;;18.20;81.30;;;;;;5038254;28;20060;-83
2021/06/28 05:00:32;;;;;;;1.20;1.10;;;18.30;81.20;;;;;;5054992;28;20459;-83
2021/06/28 05:02:57;;;;;;;0.80;0.80;;;18.30;81.10;;;;;;5019946;28;20040;-83
2021/06/28 05:05:23;;;;;;;0.93;0.93;;;18.40;81.20;;;;;;5073223;28;20040;-84
2021/06/28 05:07:49;;;;;;;0.85;0.85;;;18.50;81.10;;;;;;5038174;28;20078;-83
2021/06/28 05:10:16;;;;;;;0.90;0.80;;;18.50;81.00;;;;;;5054764;28;20474;-83
2021/06/28 05:12:42;;;;;;;1.75;0.88;;;18.60;80.90;;;;;;5035786;28;20433;-82
2021/06/28 05:15:09;;;;;;;1.45;0.90;;;18.60;80.80;;;;;;5038360;28;20139;-83
2021/06/28 05:17:35;;;;;;;0.90;0.90;;;18.70;80.80;;;;;;5021674;28;20048;-83
2021/06/28 05:20:04;;;;;;;1.27;1.10;;;18.80;80.70;;;;;;5036439;28;20048;-82
2021/06/28 05:22:30;;;;;;;1.13;1.00;;;18.90;80.60;;;;;;5038088;28;20044;-82
2021/06/28 05:24:56;;;;;;;1.20;1.00;;;19.00;80.40;;;;;;5021302;28;20441;-82
2021/06/28 05:27:22;;;;;;;1.98;1.20;;;19.00;80.80;;;;;;5055081;28;20393;-82
2021/06/28 05:29:54;;;;;;;1.02;0.98;;;19.20;80.20;;;;;;5052941;28;20123;-82
2021/06/28 05:32:21;;;;;;;1.10;1.00;;;19.20;80.00;;;;;;5037932;28;20048;-82
2021/06/28 05:34:48;;;;;;;1.38;1.10;;;19.30;79.80;;;;;;5037913;28;20044;-82
2021/06/28 05:37:13;;;;;;;0.80;0.80;;;19.40;79.90;;;;;;5054674;28;20037;-83
2021/06/28 05:39:39;;;;;;;1.00;0.90;;;19.30;79.90;;;;;;5021493;28;20056;-81
2021/06/28 05:42:05;;;;;;;1.33;1.17;;;19.50;80.00;;;;;;5054349;28;20037;-80
2021/06/28 05:44:31;;;;;;;1.52;1.17;;;19.50;79.90;;;;;;5071079;28;20045;-81
2021/06/28 05:46:56;;;;;;;1.20;0.90;;;19.60;79.80;;;;;;5072500;28;20089;-81
2021/06/28 05:49:22;;;;;;;1.20;1.10;;;19.70;79.80;;;;;;5072117;28;20033;-81
2021/06/28 05:51:49;;;;;;;1.30;1.15;;;19.70;79.70;;;;;;5072112;28;20417;-82
2021/06/28 05:54:14;;;;;;;1.35;1.10;;;19.80;79.80;;;;;;5054540;28;20071;-82
2021/06/28 05:56:40;;;;;;;1.23;0.82;;;19.80;79.70;;;;;;5058298;28;20041;-82
2021/06/28 05:59:06;;;;;;;0.82;0.82;;;19.80;79.60;;;;;;5056757;28;20458;-82
2021/06/28 06:01:31;;;;;;;1.30;1.20;;;20.00;79.70;;;;;;5041539;28;20070;-81
2021/06/28 06:03:57;;;;;;;1.58;1.10;;;20.00;79.60;;;;;;5038913;28;20048;-80
2021/06/28 06:06:23;;;;;;;1.13;1.02;;;20.00;79.50;;;;;;5060319;28;20048;-83
2021/06/28 06:08:48;;;;;;;1.25;1.10;;;20.00;79.60;;;;;;5079190;28;20037;-84
2021/06/28 06:11:14;;;;;;;1.70;1.25;;;20.00;79.80;;;;;;5060386;28;20406;-81
2021/06/28 06:13:40;;;;;;;1.13;1.02;;;20.10;79.90;;;;;;5058985;28;20075;-84
2021/06/28 06:16:05;;;;;;;1.45;1.20;;;20.10;79.90;;;;;;5022431;28;20044;-81
2021/06/28 06:18:31;;;;;;;1.63;1.02;;;20.20;79.80;;;;;;5040550;28;20045;-81
2021/06/28 06:20:57;;;;;;;1.30;1.20;;;20.30;79.70;;;;;;5057420;28;20040;-82
2021/06/28 06:23:23;;;;;;;1.42;1.20;;;20.30;79.40;;;;;;5040878;28;20371;-83
2021/06/28 06:25:49;;;;;;;1.25;1.00;;;20.50;79.30;;;;;;5055350;28;20051;-83
2021/06/28 06:28:14;;;;;;;1.92;1.48;;;20.50;79.20;;;;;;5057245;28;20094;-82
2021/06/28 06:30:42;;;;;;;1.30;1.17;;;20.60;79.10;;;;;;5024181;28;20098;-82
2021/06/28 06:33:09;;;;;;;1.95;1.40;;;20.70;79.00;;;;;;5075184;28;20044;-82
2021/06/28 06:35:34;;;;;;;1.70;1.40;;;20.80;79.00;;;;;;5057248;28;20051;-83
2021/06/28 06:38:00;;;;;;;1.42;1.20;;;20.90;78.80;;;;;;5057122;28;20045;-80
2021/06/28 06:40:28;;;;;;;2.92;1.50;;;21.00;78.70;;;;;;5046518;28;20445;-80
2021/06/28 06:42:55;;;;;;;2.40;1.60;;;21.10;78.60;;;;;;5036659;28;20036;-78
2021/06/28 06:45:24;;;;;;;1.55;1.27;;;21.20;78.40;;;;;;5084468;28;20028;-78
2021/06/28 06:47:50;;;;;;;1.58;1.30;;;21.20;78.20;;;;;;5056998;28;20068;-78
2021/06/28 06:50:17;;;;;;;1.60;1.42;;;21.20;78.10;;;;;;5056386;28;20049;-79
2021/06/28 06:52:46;;;;;;;1.25;1.15;;;21.30;78.20;;;;;;5040526;28;20413;-78
2021/06/28 06:55:13;;;;;;;1.65;1.33;;;21.40;78.10;;;;;;5058749;28;20098;-81
2021/06/28 06:57:41;;;;;;;1.83;1.45;;;21.50;78.00;;;;;;5041351;28;20132;-84
2021/06/28 07:00:12;;;;;;;1.55;1.40;;;21.50;78.00;;;;;;5068944;28;20562;-82
2021/06/28 07:02:38;;;;;;;;;;;21.60;77.80;;;;;;5026119;28;20033;-80
2021/06/28 07:05:04;;;;;;;1.60;1.30;;;21.90;77.60;;;;;;5056281;28;19981;-80
2021/06/28 07:07:30;;;;;;;2.08;1.27;;;22.00;77.50;;;;;;5041145;28;20136;-79
2021/06/28 07:09:56;;;;;;;1.83;1.45;;;22.10;77.20;;;;;;5057189;28;20068;-76
2021/06/28 07:12:22;;;;;;;1.88;1.40;;;22.20;77.00;;;;;;5074982;28;20072;-76
2021/06/28 07:14:48;;;;;;;1.58;1.40;;;22.40;76.80;;;;;;5056697;28;20060;-77
2021/06/28 07:17:14;;;;;;;1.70;1.40;;;22.50;76.60;;;;;;5096202;28;20025;-78
2021/06/28 07:19:39;;;;;;;2.55;1.40;;;22.70;76.50;;;;;;5080275;28;20064;-77
2021/06/28 07:22:05;;;;;;;1.98;1.48;;;22.80;76.20;;;;;;5098764;28;20052;-77
2021/06/28 07:24:32;;;;;;;3.03;1.92;;;23.00;76.10;;;;;;5095341;28;20071;-79
2021/06/28 07:26:58;;;;;;;2.65;1.90;;;23.10;75.90;;;;;;5046923;28;20511;-79
2021/06/28 07:29:24;;;;;;;2.03;1.60;;;23.30;75.80;;;;;;5058910;28;20041;-77
2021/06/28 07:31:50;;;;;;;1.90;1.67;;;23.30;75.60;;;;;;5076792;28;20117;-79
2021/06/28 07:34:16;;;;;;;1.95;1.67;;;23.50;75.60;;;;;;5059734;28;20044;-79
2021/06/28 07:36:42;;;;;;;2.38;1.77;;;23.60;75.50;;;;;;5037898;28;20045;-79
2021/06/28 07:39:08;;;;;;;1.95;1.60;;;23.70;75.50;;;;;;5074828;28;20055;-79
2021/06/28 07:41:34;;;;;;;2.33;1.90;;;23.80;75.30;;;;;;5039573;28;20047;-80
2021/06/28 07:44:02;;;;;;;2.25;1.70;;;23.90;75.20;;;;;;5056617;28;20431;-79
2021/06/28 07:46:28;;;;;;;1.60;1.50;;;24.00;75.00;;;;;;5071158;28;20047;-80
2021/06/28 07:48:54;;;;;;;2.58;1.88;;;24.20;74.90;;;;;;5056125;28;20048;-79
2021/06/28 07:51:20;;;;;;;1.73;1.50;;;24.40;74.90;;;;;;5074399;28;20044;-80
2021/06/28 07:53:46;;;;;;;2.25;1.63;;;24.50;74.70;;;;;;5074598;28;20093;-80
2021/06/28 07:56:17;;;;;;;2.03;1.83;;;24.70;74.50;;;;;;5057344;28;20049;-82
2021/06/28 07:58:44;;;;;;;3.17;2.15;;;24.90;74.20;;;;;;5074698;28;20037;-82
2021/06/28 08:01:11;;;;;;;1.73;1.48;;;24.90;74.10;;;;;;5063431;28;20055;-79
2021/06/28 08:03:43;;;;;;;1.90;1.75;;;25.00;73.90;;;;;;5056031;28;20044;-77
2021/06/28 08:06:10;;;;;;;1.88;1.63;;;25.10;73.90;;;;;;5057311;28;20040;-78
2021/06/28 08:08:36;;;;;;;1.95;1.70;;;25.00;74.10;;;;;;5079486;28;20041;-78
2021/06/28 08:11:03;;;;;;;2.20;1.70;;;24.90;74.10;;;;;;5074052;28;20047;-78
2021/06/28 08:13:28;;;;;;;2.50;1.77;;;24.70;74.70;;;;;;5070520;28;20079;-79
2021/06/28 08:15:54;;;;;;;1.77;1.65;;;24.70;75.20;;;;;;5094056;28;20044;-79
2021/06/28 08:18:20;;;;;;;2.60;2.10;;;24.80;75.00;;;;;;5074793;28;20032;-79
2021/06/28 08:20:45;;;;;;;2.28;1.73;;;25.10;74.60;;;;;;5080593;28;20045;-78
2021/06/28 08:23:13;;;;;;;2.03;1.70;;;25.10;74.10;;;;;;5079843;28;20147;-78
2021/06/28 08:25:39;;;;;;;1.73;1.45;;;25.20;74.20;;;;;;5063044;28;20013;-79
2021/06/28 08:28:07;;;;;;;2.13;1.80;;;25.20;74.30;;;;;;5095637;28;20032;-79
2021/06/28 08:30:33;;;;;;;1.70;1.50;;;25.40;74.20;;;;;;5083822;28;20044;-79
2021/06/28 08:32:58;;;;;;;2.03;1.42;;;25.60;74.00;;;;;;5042128;28;20410;-80
2021/06/28 08:35:24;;;;;;;2.75;1.80;;;25.70;74.00;;;;;;5073980;28;20044;-80
2021/06/28 08:37:50;;;;;;;2.33;1.73;;;25.80;73.70;;;;;;5057262;28;20470;-79
2021/06/28 08:40:16;;;;;;;2.03;1.73;;;26.00;73.60;;;;;;5056855;28;20115;-76
2021/06/28 08:42:44;;;;;;;2.42;1.63;;;26.00;73.40;;;;;;5075278;28;20041;-75
2021/06/28 08:45:11;;;;;;;2.17;1.80;;;26.10;73.10;;;;;;5074386;28;20499;-75
2021/06/28 08:47:39;;;;;;;2.28;1.85;;;26.10;73.00;;;;;;5055622;28;20044;-75
2021/06/28 08:50:07;;;;;;;2.00;1.80;;;25.90;73.20;;;;;;5074800;28;20045;-77
2021/06/28 08:52:36;;;;;;;1.70;1.52;;;25.90;73.60;;;;;;5071801;28;20044;-77
2021/06/28 08:55:04;;;;;;;2.08;1.80;;;26.10;73.60;;;;;;5055900;28;20048;-77
2021/06/28 08:57:30;;;;;;;1.88;1.60;;;26.30;73.30;;;;;;5073178;28;20437;-76
2021/06/28 08:59:55;;;;;;;1.98;1.63;;;26.40;72.90;;;;;;5055029;28;20039;-76
2021/06/28 09:02:21;;;;;;;1.73;1.60;;;26.60;72.60;;;;;;5065991;28;20037;-77
2021/06/28 09:05:04;;;;;;;1.48;1.38;;;26.70;72.30;;;;;;5082491;28;20123;-77
2021/06/28 09:07:30;;;;;;;1.77;1.60;;;26.80;72.10;;;;;;5078264;28;20048;-76
2021/06/28 09:09:56;;;;;;;1.67;1.58;;;26.90;72.00;;;;;;5061378;28;20047;-76
2021/06/28 09:12:22;;;;;;;1.90;1.63;;;26.90;71.90;;;;;;5061590;28;20052;-76
2021/06/28 09:14:52;;;;;;;1.77;1.50;;;26.80;71.80;;;;;;5086012;28;20101;-77
2021/06/28 09:17:36;;;;;;;2.70;2.00;;;26.80;72.10;;;;;;5076241;28;20044;-78
2021/06/28 09:20:19;;;;;;;2.35;1.90;;;27.00;71.80;;;;;;5088038;28;20109;-77
2021/06/28 09:22:47;;;;;;;1.48;1.38;;;27.20;71.60;;;;;;5062380;28;20045;-78
2021/06/28 09:25:28;;;;;;;1.35;1.25;;;27.30;71.40;;;;;;5076209;28;20044;-80
2021/06/28 09:27:56;;;;;;;1.67;1.58;;;27.30;71.20;;;;;;5055674;28;20044;-83
2021/06/28 09:30:23;;;;;;;1.77;1.50;;;27.30;71.10;;;;;;5038991;28;20528;-78
2021/06/28 09:32:52;;;;;;;1.40;1.30;;;27.40;71.30;;;;;;5070955;28;20060;-76
2021/06/28 09:35:36;;;;;;;1.67;1.52;;;27.40;71.50;;;;;;5078952;28;20044;-76
2021/06/28 09:38:07;;;;;;;1.90;1.70;;;27.50;71.20;;;;;;5073216;28;20052;-78
2021/06/28 09:40:35;;;;;;;1.73;1.63;;;27.50;71.20;;;;;;5037080;28;20048;-78
2021/06/28 09:43:27;;;;;;;2.55;1.80;;;27.40;71.10;;;;;;5055033;28;20036;-80
2021/06/28 09:45:55;;;;;;;2.00;1.80;;;27.20;71.30;;;;;;5044690;28;20115;-77
2021/06/28 09:48:30;;;;;;;1.55;1.45;;;26.90;71.70;;;;;;5064771;28;20506;-78
2021/06/28 09:51:32;;;;;;;1.88;1.50;;;26.80;72.30;;;;;;5078430;28;20505;-78
2021/06/28 09:54:17;;;;;;;1.67;1.50;;;26.50;72.70;;;;;;5075690;28;20036;-79
2021/06/28 09:56:46;;;;;;;1.90;1.70;;;26.30;73.00;;;;;;5052367;28;20403;-78
2021/06/28 09:59:31;;;;;;;2.10;1.80;;;26.10;73.20;;;;;;5039261;28;20033;-76
2021/06/28 10:02:26;;;;;;;1.98;1.70;;;25.90;73.50;;;;;;5056697;28;20033;-82
2021/06/28 10:04:58;;;;;;;2.22;1.70;;;25.70;73.70;;;;;;5057126;28;20087;-77
2021/06/28 10:07:27;;;;;;;2.20;1.45;;;25.70;73.80;;;;;;5070559;28;20436;-78
2021/06/28 10:10:11;;;;;;;2.30;1.75;;;25.70;73.90;;;;;;5037373;28;20045;-78
2021/06/28 10:12:39;;;;;;;2.00;1.70;;;25.60;73.70;;;;;;5071882;28;20127;-77
2021/06/28 10:15:08;;;;;;;2.63;1.98;;;25.70;73.60;;;;;;5054861;28;20474;-79
2021/06/28 10:17:34;;;;;;;2.22;1.60;;;25.70;73.40;;;;;;5055528;28;20040;-79
2021/06/28 10:19:59;;;;;;;1.90;1.55;;;25.70;73.30;;;;;;5072426;28;20155;-78
2021/06/28 10:22:25;;;;;;;1.98;1.45;;;25.70;73.10;;;;;;5053739;28;20064;-78
2021/06/28 10:24:51;;;;;;;1.73;1.60;;;25.70;73.00;;;;;;5054088;28;20044;-80
2021/06/28 10:27:18;;;;;;;2.00;1.80;;;25.80;73.10;;;;;;5071830;28;20125;-80
2021/06/28 10:29:44;;;;;;;1.50;1.40;;;25.80;73.00;;;;;;5055060;28;20075;-80
2021/06/28 10:32:12;;;;;;;1.45;1.35;;;25.80;72.90;;;;;;5020796;28;20072;-80
2021/06/28 10:34:40;;;;;;;1.85;1.65;;;25.70;72.90;;;;;;5020805;28;20071;-79
2021/06/28 10:37:36;;;;;;;1.88;1.63;;;25.60;73.20;;;;;;5053775;28;20044;-79
2021/06/28 10:40:11;;;;;;;1.75;1.60;;;25.60;73.20;;;;;;5072359;28;20044;-78
2021/06/28 10:42:39;;;;;;;1.73;1.63;;;25.60;73.10;;;;;;5040189;28;20037;-78
2021/06/28 10:45:08;;;;;;;2.22;1.67;;;25.70;73.10;;;;;;5055348;28;20036;-81
2021/06/28 10:47:41;;;;;;;2.13;1.80;;;25.70;73.00;;;;;;5069487;28;20470;-79
2021/06/28 10:50:08;;;;;;;2.75;1.90;;;25.60;73.00;;;;;;4997243;28;20048;-83
2021/06/28 10:52:52;;;;;;;2.38;1.70;;;25.60;73.10;;;;;;5000875;28;20037;-84
2021/06/28 10:55:38;;;;;;;2.08;1.58;;;25.50;73.20;;;;;;5017111;28;20048;-81
2021/06/28 10:58:25;;;;;;;1.67;1.58;;;25.50;73.40;;;;;;5020134;28;20560;-83
2021/06/28 11:01:01;;;;;;;1.88;1.58;;;25.40;73.40;;;;;;4987860;28;20564;-82
2021/06/28 11:03:30;;;;;;;1.77;1.52;;;25.20;73.60;;;;;;4998283;28;20042;-81
2021/06/28 11:06:17;;;;;;;2.08;1.70;;;25.30;74.40;;;;;;4980949;28;20399;-82
2021/06/28 11:12:24;;;;;;;1.50;1.40;;;25.10;73.70;;;;;;5013742;28;20089;-84
2021/06/28 11:15:13;;;;;;;1.67;1.50;;;25.00;73.90;;;;;;5020400;28;20118;-80
2021/06/28 11:17:46;;;;;;;1.38;1.25;;;24.90;74.00;;;;;;5039229;28;20052;-81
2021/06/28 11:20:34;;;;;;;1.40;1.30;;;24.70;74.20;;;;;;5038236;28;20099;-81
2021/06/28 11:23:06;;;;;;;2.22;1.70;;;24.60;74.40;;;;;;5036130;28;20040;-81
2021/06/28 11:25:51;;;;;;;1.85;1.40;;;24.60;74.60;;;;;;5035522;28;20056;-81
2021/06/28 11:28:25;;;;;;;1.77;1.60;;;24.50;74.50;;;;;;5036306;28;20068;-83
2021/06/28 11:30:57;;;;;;;1.90;1.70;;;24.50;74.50;;;;;;5047360;28;20053;-82
2021/06/28 11:33:33;;;;;;;2.50;1.73;;;24.40;74.50;;;;;;5040095;28;20052;-82
2021/06/28 11:36:00;;;;;;;1.90;1.75;;;24.40;74.50;;;;;;4998606;28;20042;-81
2021/06/28 11:38:38;;;;;;;2.55;1.88;;;24.40;74.60;;;;;;4998264;28;20038;-81
2021/06/28 11:41:16;;;;;;;2.13;1.55;;;24.30;74.60;;;;;;4993813;28;20073;-82
2021/06/28 11:43:46;;;;;;;1.52;1.40;;;24.30;74.70;;;;;;4994231;28;20042;-80
2021/06/28 11:46:36;;;;;;;1.35;1.20;;;24.20;74.80;;;;;;4981841;28;20166;-81
2021/06/28 11:49:08;;;;;;;1.40;1.25;;;24.20;74.90;;;;;;4997895;28;20046;-78
2021/06/28 11:51:38;;;;;;;1.55;1.40;;;24.10;74.90;;;;;;4992563;28;20047;-80
2021/06/28 11:54:09;;;;;;;1.63;1.52;;;24.10;74.90;;;;;;4992914;28;20136;-79
2021/06/28 11:56:41;;;;;;;1.92;1.50;;;24.20;74.90;;;;;;4975913;28;20531;-81
2021/06/28 11:59:24;;;;;;;1.95;1.65;;;24.10;74.80;;;;;;4982586;28;20038;-79
2021/06/28 12:01:52;;;;;;;1.73;1.58;;;24.10;74.70;;;;;;4998172;28;20066;-79
2021/06/28 12:04:21;;;;;;;2.63;1.50;;;24.20;74.70;;;;;;4997966;28;20132;-76
2021/06/28 12:06:49;;;;;;;1.75;1.50;;;24.20;74.80;;;;;;5017645;28;20045;-77
2021/06/28 12:09:18;;;;;;;1.92;1.52;;;24.10;74.80;;;;;;5058088;28;20052;-81
2021/06/28 12:11:53;;;;;;;2.10;1.70;;;24.30;74.90;;;;;;5061256;28;20037;-80
2021/06/28 12:14:34;;;;;;;1.85;1.60;;;24.20;74.90;;;;;;5074735;28;20402;-84
2021/06/28 12:17:07;;;;;;;2.03;1.60;;;24.00;74.80;;;;;;5073125;28;20123;-77
2021/06/28 12:19:33;;;;;;;1.95;1.70;;;24.10;74.60;;;;;;5057738;28;20032;-77
2021/06/28 12:22:08;;;;;;;2.65;1.80;;;24.20;74.50;;;;;;5058558;28;20040;-78
2021/06/28 12:24:34;;;;;;;2.22;1.70;;;24.20;74.40;;;;;;5076276;28;20037;-78
2021/06/28 12:27:04;;;;;;;2.03;1.73;;;24.20;74.40;;;;;;5040583;28;20055;-78
2021/06/28 12:29:43;;;;;;;2.70;2.00;;;24.10;74.30;;;;;;5076509;28;20048;-78
2021/06/28 12:32:15;;;;;;;2.28;1.67;;;24.20;74.20;;;;;;5041754;28;20463;-78
2021/06/28 12:34:54;;;;;;;2.13;1.60;;;24.20;74.20;;;;;;5076027;28;20036;-78
2021/06/28 12:37:30;;;;;;;2.78;1.90;;;24.20;74.10;;;;;;5077968;28;20036;-78
2021/06/28 12:40:31;;;;;;;2.67;1.98;;;24.10;74.00;;;;;;5075786;28;20040;-79
2021/06/28 12:43:01;;;;;;;2.55;1.90;;;24.20;74.10;;;;;;5077733;28;20086;-78
2021/06/28 12:45:36;;;;;;;2.28;1.75;;;24.20;74.10;;;;;;5041354;28;20048;-79
2021/06/28 12:48:04;;;;;;;3.08;2.20;;;24.10;74.80;;;;;;5081769;28;20044;-77
2021/06/28 12:50:33;;;;;;;2.95;2.10;;;24.10;74.20;;;;;;5059787;28;20158;-81
2021/06/28 12:52:59;;;;;;;2.67;2.08;;;24.10;74.20;;;;;;5058718;28;20076;-80
2021/06/28 12:55:27;;;;;;;2.15;1.67;;;24.10;74.20;;;;;;5059988;28;20094;-81
2021/06/28 12:58:04;;;;;;;2.47;1.85;;;24.10;74.30;;;;;;5055619;28;20032;-76